sensor_id;sensor_type;location;lat;lon;timestamp;temperature;humidity
16402;DHT22;8310;44.626;11.176;2023-08-07T00:02:01;22.00;49.70
16402;DHT22;8310;44.626;11.176;2023-08-07T00:04:29;21.80;49.40
16402;DHT22;8310;44.626;11.176;2023-08-07T00:06:56;21.60;49.20
16402;DHT22;8310;44.626;11.176;2023-08-07T00:09:23;21.40;49.10
16402;DHT22;8310;44.626;11.176;2023-08-07T00:11:51;21.20;49.20
16402;DHT22;8310;44.626;11.176;2023-08-07T00:14:17;21.00;49.50
16402;DHT22;8310;44.626;11.176;2023-08-07T00:16:44;20.90;49.60
16402;DHT22;8310;44.626;11.176;2023-08-07T00:19:13;20.90;49.80
16402;DHT22;8310;44.626;11.176;2023-08-07T00:21:40;20.90;50.00
16402;DHT22;8310;44.626;11.176;2023-08-07T00:24:07;20.90;50.10
16402;DHT22;8310;44.626;11.176;2023-08-07T00:26:34;21.00;50.20
16402;DHT22;8310;44.626;11.176;2023-08-07T00:29:01;21.00;50.10
16402;DHT22;8310;44.626;11.176;2023-08-07T00:31:28;21.00;49.90
16402;DHT22;8310;44.626;11.176;2023-08-07T00:33:56;20.90;49.90
16402;DHT22;8310;44.626;11.176;2023-08-07T00:36:25;20.80;50.00
16402;DHT22;8310;44.626;11.176;2023-08-07T00:38:54;20.70;50.10
16402;DHT22;8310;44.626;11.176;2023-08-07T00:41:21;20.70;50.20
16402;DHT22;8310;44.626;11.176;2023-08-07T00:43:48;20.80;50.30
16402;DHT22;8310;44.626;11.176;2023-08-07T00:46:15;20.80;51.00
16402;DHT22;8310;44.626;11.176;2023-08-07T00:48:42;20.90;50.50
16402;DHT22;8310;44.626;11.176;2023-08-07T00:51:09;20.90;50.50
16402;DHT22;8310;44.626;11.176;2023-08-07T00:53:38;20.90;50.50
16402;DHT22;8310;44.626;11.176;2023-08-07T00:56:06;21.00;50.60
16402;DHT22;8310;44.626;11.176;2023-08-07T00:58:34;21.00;50.50
16402;DHT22;8310;44.626;11.176;2023-08-07T01:01:01;21.10;50.60
16402;DHT22;8310;44.626;11.176;2023-08-07T01:03:28;21.10;50.60
16402;DHT22;8310;44.626;11.176;2023-08-07T01:05:55;21.00;50.50
16402;DHT22;8310;44.626;11.176;2023-08-07T01:08:22;21.00;50.50
16402;DHT22;8310;44.626;11.176;2023-08-07T01:10:55;21.00;50.50
16402;DHT22;8310;44.626;11.176;2023-08-07T01:13:29;21.00;50.50
16402;DHT22;8310;44.626;11.176;2023-08-07T01:16:00;21.00;50.50
16402;DHT22;8310;44.626;11.176;2023-08-07T01:18:28;21.00;50.50
16402;DHT22;8310;44.626;11.176;2023-08-07T01:20:56;21.00;50.60
16402;DHT22;8310;44.626;11.176;2023-08-07T01:23:25;21.00;50.60
16402;DHT22;8310;44.626;11.176;2023-08-07T01:25:52;21.00;50.60
16402;DHT22;8310;44.626;11.176;2023-08-07T01:28:23;21.00;50.70
16402;DHT22;8310;44.626;11.176;2023-08-07T01:30:54;20.90;50.70
16402;DHT22;8310;44.626;11.176;2023-08-07T01:33:22;20.90;50.70
16402;DHT22;8310;44.626;11.176;2023-08-07T01:35:53;20.90;50.70
16402;DHT22;8310;44.626;11.176;2023-08-07T01:38:20;20.90;50.70
16402;DHT22;8310;44.626;11.176;2023-08-07T01:40:50;20.90;50.70
16402;DHT22;8310;44.626;11.176;2023-08-07T01:43:17;20.90;50.70
16402;DHT22;8310;44.626;11.176;2023-08-07T01:45:45;20.90;50.80
16402;DHT22;8310;44.626;11.176;2023-08-07T01:48:12;20.90;50.80
16402;DHT22;8310;44.626;11.176;2023-08-07T01:50:40;20.90;50.80
16402;DHT22;8310;44.626;11.176;2023-08-07T01:53:07;20.90;50.70
16402;DHT22;8310;44.626;11.176;2023-08-07T01:55:34;20.80;50.50
16402;DHT22;8310;44.626;11.176;2023-08-07T01:58:03;20.70;50.40
16402;DHT22;8310;44.626;11.176;2023-08-07T02:00:30;20.70;50.40
16402;DHT22;8310;44.626;11.176;2023-08-07T02:02:58;20.60;50.40
16402;DHT22;8310;44.626;11.176;2023-08-07T02:05:25;20.50;51.00
16402;DHT22;8310;44.626;11.176;2023-08-07T02:07:53;20.40;50.40
16402;DHT22;8310;44.626;11.176;2023-08-07T02:10:22;20.30;50.40
16402;DHT22;8310;44.626;11.176;2023-08-07T02:12:49;20.20;50.50
16402;DHT22;8310;44.626;11.176;2023-08-07T02:15:18;20.10;50.40
16402;DHT22;8310;44.626;11.176;2023-08-07T02:17:44;20.10;50.50
16402;DHT22;8310;44.626;11.176;2023-08-07T02:20:12;20.10;50.70
16402;DHT22;8310;44.626;11.176;2023-08-07T02:22:39;20.00;50.70
16402;DHT22;8310;44.626;11.176;2023-08-07T02:25:06;20.00;50.70
16402;DHT22;8310;44.626;11.176;2023-08-07T02:27:33;20.00;50.70
16402;DHT22;8310;44.626;11.176;2023-08-07T02:30:00;20.00;50.70
16402;DHT22;8310;44.626;11.176;2023-08-07T02:32:30;20.00;50.80
16402;DHT22;8310;44.626;11.176;2023-08-07T02:34:57;20.00;50.90
16402;DHT22;8310;44.626;11.176;2023-08-07T02:37:25;20.00;50.90
16402;DHT22;8310;44.626;11.176;2023-08-07T02:39:52;20.10;51.00
16402;DHT22;8310;44.626;11.176;2023-08-07T02:42:19;20.10;51.00
16402;DHT22;8310;44.626;11.176;2023-08-07T02:44:46;20.10;51.00
16402;DHT22;8310;44.626;11.176;2023-08-07T02:47:13;20.10;50.90
16402;DHT22;8310;44.626;11.176;2023-08-07T02:49:42;20.10;50.80
16402;DHT22;8310;44.626;11.176;2023-08-07T02:52:09;20.10;50.90
16402;DHT22;8310;44.626;11.176;2023-08-07T02:54:37;20.10;50.90
16402;DHT22;8310;44.626;11.176;2023-08-07T02:57:04;20.10;50.90
16402;DHT22;8310;44.626;11.176;2023-08-07T02:59:31;20.10;51.50
16402;DHT22;8310;44.626;11.176;2023-08-07T03:01:58;20.10;51.00
16402;DHT22;8310;44.626;11.176;2023-08-07T03:04:25;20.10;51.10
16402;DHT22;8310;44.626;11.176;2023-08-07T03:06:53;20.10;51.10
16402;DHT22;8310;44.626;11.176;2023-08-07T03:09:20;20.10;51.10
16402;DHT22;8310;44.626;11.176;2023-08-07T03:11:47;20.10;51.20
16402;DHT22;8310;44.626;11.176;2023-08-07T03:14:15;20.10;51.10
16402;DHT22;8310;44.626;11.176;2023-08-07T03:16:42;20.10;51.00
16402;DHT22;8310;44.626;11.176;2023-08-07T03:19:09;20.10;50.90
16402;DHT22;8310;44.626;11.176;2023-08-07T03:21:36;20.00;50.80
16402;DHT22;8310;44.626;11.176;2023-08-07T03:24:06;19.90;50.90
16402;DHT22;8310;44.626;11.176;2023-08-07T03:26:33;19.90;51.00
16402;DHT22;8310;44.626;11.176;2023-08-07T03:29:00;19.90;51.10
16402;DHT22;8310;44.626;11.176;2023-08-07T03:31:27;19.90;51.00
16402;DHT22;8310;44.626;11.176;2023-08-07T03:33:55;19.80;51.00
16402;DHT22;8310;44.626;11.176;2023-08-07T03:36:22;19.80;51.10
16402;DHT22;8310;44.626;11.176;2023-08-07T03:38:49;19.80;51.10
16402;DHT22;8310;44.626;11.176;2023-08-07T03:41:18;19.70;50.90
16402;DHT22;8310;44.626;11.176;2023-08-07T03:43:45;19.70;50.90
16402;DHT22;8310;44.626;11.176;2023-08-07T03:46:13;19.50;50.80
16402;DHT22;8310;44.626;11.176;2023-08-07T03:48:40;19.50;50.70
16402;DHT22;8310;44.626;11.176;2023-08-07T03:51:07;19.30;50.70
16402;DHT22;8310;44.626;11.176;2023-08-07T03:53:35;19.20;50.80
16402;DHT22;8310;44.626;11.176;2023-08-07T03:56:02;19.20;50.90
16402;DHT22;8310;44.626;11.176;2023-08-07T03:58:31;19.10;50.90
16402;DHT22;8310;44.626;11.176;2023-08-07T04:00:58;19.10;51.00
16402;DHT22;8310;44.626;11.176;2023-08-07T04:03:26;19.10;51.00
16402;DHT22;8310;44.626;11.176;2023-08-07T04:05:53;19.00;50.90
16402;DHT22;8310;44.626;11.176;2023-08-07T04:08:21;18.90;51.00
16402;DHT22;8310;44.626;11.176;2023-08-07T04:10:57;18.90;51.10
16402;DHT22;8310;44.626;11.176;2023-08-07T04:13:24;18.90;51.10
16402;DHT22;8310;44.626;11.176;2023-08-07T04:15:52;19.00;51.30
16402;DHT22;8310;44.626;11.176;2023-08-07T04:18:19;19.00;51.30
16402;DHT22;8310;44.626;11.176;2023-08-07T04:20:48;19.00;51.40
16402;DHT22;8310;44.626;11.176;2023-08-07T04:23:15;19.10;51.50
16402;DHT22;8310;44.626;11.176;2023-08-07T04:25:42;19.10;51.40
16402;DHT22;8310;44.626;11.176;2023-08-07T04:28:10;19.10;51.40
16402;DHT22;8310;44.626;11.176;2023-08-07T04:30:37;19.10;51.40
16402;DHT22;8310;44.626;11.176;2023-08-07T04:33:05;19.10;51.50
16402;DHT22;8310;44.626;11.176;2023-08-07T04:35:32;19.00;51.40
16402;DHT22;8310;44.626;11.176;2023-08-07T04:37:59;19.00;51.50
16402;DHT22;8310;44.626;11.176;2023-08-07T04:40:27;19.00;51.50
16402;DHT22;8310;44.626;11.176;2023-08-07T04:42:54;19.00;51.60
16402;DHT22;8310;44.626;11.176;2023-08-07T04:45:21;19.10;51.70
16402;DHT22;8310;44.626;11.176;2023-08-07T04:47:48;19.10;51.70
16402;DHT22;8310;44.626;11.176;2023-08-07T04:50:17;19.10;51.70
16402;DHT22;8310;44.626;11.176;2023-08-07T04:52:44;19.10;51.70
16402;DHT22;8310;44.626;11.176;2023-08-07T04:55:11;19.10;51.70
16402;DHT22;8310;44.626;11.176;2023-08-07T04:57:39;19.10;51.80
16402;DHT22;8310;44.626;11.176;2023-08-07T05:00:06;19.10;51.90
16402;DHT22;8310;44.626;11.176;2023-08-07T05:02:33;19.10;52.10
16402;DHT22;8310;44.626;11.176;2023-08-07T05:05:01;19.20;52.30
16402;DHT22;8310;44.626;11.176;2023-08-07T05:07:32;19.30;52.50
16402;DHT22;8310;44.626;11.176;2023-08-07T05:10:00;19.40;52.60
16402;DHT22;8310;44.626;11.176;2023-08-07T05:12:27;19.50;52.60
16402;DHT22;8310;44.626;11.176;2023-08-07T05:14:55;19.60;52.60
16402;DHT22;8310;44.626;11.176;2023-08-07T05:17:22;19.60;52.60
16402;DHT22;8310;44.626;11.176;2023-08-07T05:19:48;19.60;52.80
16402;DHT22;8310;44.626;11.176;2023-08-07T05:22:16;19.80;53.20
16402;DHT22;8310;44.626;11.176;2023-08-07T05:24:44;19.90;54.00
16402;DHT22;8310;44.626;11.176;2023-08-07T05:27:11;20.10;53.70
16402;DHT22;8310;44.626;11.176;2023-08-07T05:29:39;20.30;54.00
16402;DHT22;8310;44.626;11.176;2023-08-07T05:32:10;20.50;54.20
16402;DHT22;8310;44.626;11.176;2023-08-07T05:34:37;20.80;54.50
16402;DHT22;8310;44.626;11.176;2023-08-07T05:37:04;21.00;54.60
16402;DHT22;8310;44.626;11.176;2023-08-07T05:39:31;21.10;54.60
16402;DHT22;8310;44.626;11.176;2023-08-07T05:42:00;21.20;54.50
16402;DHT22;8310;44.626;11.176;2023-08-07T05:44:28;21.30;54.40
16402;DHT22;8310;44.626;11.176;2023-08-07T05:46:56;21.40;54.30
16402;DHT22;8310;44.626;11.176;2023-08-07T05:49:22;21.50;54.10
16402;DHT22;8310;44.626;11.176;2023-08-07T05:51:49;21.50;53.80
16402;DHT22;8310;44.626;11.176;2023-08-07T05:54:16;21.50;53.50
16402;DHT22;8310;44.626;11.176;2023-08-07T05:56:44;21.40;53.50
16402;DHT22;8310;44.626;11.176;2023-08-07T05:59:12;21.40;53.40
16402;DHT22;8310;44.626;11.176;2023-08-07T06:01:39;21.30;53.30
16402;DHT22;8310;44.626;11.176;2023-08-07T06:04:06;21.30;53.40
16402;DHT22;8310;44.626;11.176;2023-08-07T06:06:34;21.30;53.40
16402;DHT22;8310;44.626;11.176;2023-08-07T06:09:01;21.20;53.40
16402;DHT22;8310;44.626;11.176;2023-08-07T06:11:29;21.20;53.40
16402;DHT22;8310;44.626;11.176;2023-08-07T06:13:55;21.30;53.70
16402;DHT22;8310;44.626;11.176;2023-08-07T06:16:24;21.30;53.80
16402;DHT22;8310;44.626;11.176;2023-08-07T06:18:51;21.40;53.90
16402;DHT22;8310;44.626;11.176;2023-08-07T06:21:19;21.50;54.00
16402;DHT22;8310;44.626;11.176;2023-08-07T06:23:46;21.60;54.00
16402;DHT22;8310;44.626;11.176;2023-08-07T06:26:13;21.80;54.10
16402;DHT22;8310;44.626;11.176;2023-08-07T06:28:41;21.90;54.10
16402;DHT22;8310;44.626;11.176;2023-08-07T06:31:08;22.00;54.20
16402;DHT22;8310;44.626;11.176;2023-08-07T06:33:37;22.20;54.20
16402;DHT22;8310;44.626;11.176;2023-08-07T06:36:06;22.30;54.20
16402;DHT22;8310;44.626;11.176;2023-08-07T06:38:33;22.40;54.30
16402;DHT22;8310;44.626;11.176;2023-08-07T06:41:00;22.50;54.50
16402;DHT22;8310;44.626;11.176;2023-08-07T06:43:27;22.60;54.40
16402;DHT22;8310;44.626;11.176;2023-08-07T06:45:55;22.70;54.40
16402;DHT22;8310;44.626;11.176;2023-08-07T06:48:23;22.80;54.40
16402;DHT22;8310;44.626;11.176;2023-08-07T06:50:51;22.90;54.40
16402;DHT22;8310;44.626;11.176;2023-08-07T06:53:19;23.00;54.40
16402;DHT22;8310;44.626;11.176;2023-08-07T06:55:46;23.10;54.50
16402;DHT22;8310;44.626;11.176;2023-08-07T06:58:13;23.20;54.50
16402;DHT22;8310;44.626;11.176;2023-08-07T07:00:40;23.30;54.50
16402;DHT22;8310;44.626;11.176;2023-08-07T07:03:08;23.40;54.50
16402;DHT22;8310;44.626;11.176;2023-08-07T07:05:35;23.60;54.60
16402;DHT22;8310;44.626;11.176;2023-08-07T07:08:04;23.70;54.60
16402;DHT22;8310;44.626;11.176;2023-08-07T07:10:31;23.80;54.60
16402;DHT22;8310;44.626;11.176;2023-08-07T07:12:59;23.90;54.70
16402;DHT22;8310;44.626;11.176;2023-08-07T07:15:26;24.00;54.70
16402;DHT22;8310;44.626;11.176;2023-08-07T07:17:53;24.10;54.70
16402;DHT22;8310;44.626;11.176;2023-08-07T07:20:20;24.20;54.70
16402;DHT22;8310;44.626;11.176;2023-08-07T07:22:48;24.30;54.80
16402;DHT22;8310;44.626;11.176;2023-08-07T07:25:17;24.40;54.70
16402;DHT22;8310;44.626;11.176;2023-08-07T07:27:44;24.50;54.70
16402;DHT22;8310;44.626;11.176;2023-08-07T07:30:11;24.60;54.80
16402;DHT22;8310;44.626;11.176;2023-08-07T07:32:38;24.60;54.80
16402;DHT22;8310;44.626;11.176;2023-08-07T07:35:05;24.70;54.80
16402;DHT22;8310;44.626;11.176;2023-08-07T07:37:33;24.80;54.80
16402;DHT22;8310;44.626;11.176;2023-08-07T07:40:00;24.90;54.80
16402;DHT22;8310;44.626;11.176;2023-08-07T07:42:28;24.90;54.70
16402;DHT22;8310;44.626;11.176;2023-08-07T07:44:55;25.00;54.70
16402;DHT22;8310;44.626;11.176;2023-08-07T07:47:22;25.10;54.80
16402;DHT22;8310;44.626;11.176;2023-08-07T07:50:03;25.20;54.80
16402;DHT22;8310;44.626;11.176;2023-08-07T07:52:30;25.20;54.90
16402;DHT22;8310;44.626;11.176;2023-08-07T07:54:58;25.30;54.90
16402;DHT22;8310;44.626;11.176;2023-08-07T07:57:25;25.40;54.90
16402;DHT22;8310;44.626;11.176;2023-08-07T07:59:54;25.50;54.80
16402;DHT22;8310;44.626;11.176;2023-08-07T08:02:21;25.50;54.70
16402;DHT22;8310;44.626;11.176;2023-08-07T08:04:48;25.60;54.70
16402;DHT22;8310;44.626;11.176;2023-08-07T08:07:15;25.70;54.80
16402;DHT22;8310;44.626;11.176;2023-08-07T08:09:42;25.80;54.90
16402;DHT22;8310;44.626;11.176;2023-08-07T08:12:09;25.90;55.00
16402;DHT22;8310;44.626;11.176;2023-08-07T08:14:36;26.00;55.00
16402;DHT22;8310;44.626;11.176;2023-08-07T08:17:06;26.10;55.10
16402;DHT22;8310;44.626;11.176;2023-08-07T08:19:32;26.20;55.10
16402;DHT22;8310;44.626;11.176;2023-08-07T08:21:59;26.30;55.00
16402;DHT22;8310;44.626;11.176;2023-08-07T08:24:27;26.40;55.00
16402;DHT22;8310;44.626;11.176;2023-08-07T08:26:53;26.50;55.10
16402;DHT22;8310;44.626;11.176;2023-08-07T08:29:21;26.50;54.80
16402;DHT22;8310;44.626;11.176;2023-08-07T08:31:48;26.60;54.80
16402;DHT22;8310;44.626;11.176;2023-08-07T08:34:19;26.70;54.90
16402;DHT22;8310;44.626;11.176;2023-08-07T08:36:47;26.70;55.00
16402;DHT22;8310;44.626;11.176;2023-08-07T08:39:13;26.80;55.00
16402;DHT22;8310;44.626;11.176;2023-08-07T08:41:41;26.90;55.00
16402;DHT22;8310;44.626;11.176;2023-08-07T08:44:09;26.90;54.90
16402;DHT22;8310;44.626;11.176;2023-08-07T08:46:38;27.00;55.10
16402;DHT22;8310;44.626;11.176;2023-08-07T08:49:05;27.10;55.10
16402;DHT22;8310;44.626;11.176;2023-08-07T08:51:34;27.20;55.00
16402;DHT22;8310;44.626;11.176;2023-08-07T08:54:01;27.20;55.00
16402;DHT22;8310;44.626;11.176;2023-08-07T08:56:30;27.30;55.00
16402;DHT22;8310;44.626;11.176;2023-08-07T08:58:57;27.40;55.00
16402;DHT22;8310;44.626;11.176;2023-08-07T09:01:24;27.40;54.80
16402;DHT22;8310;44.626;11.176;2023-08-07T09:03:53;27.50;55.00
16402;DHT22;8310;44.626;11.176;2023-08-07T09:06:20;27.60;54.90
16402;DHT22;8310;44.626;11.176;2023-08-07T09:08:49;27.70;54.80
16402;DHT22;8310;44.626;11.176;2023-08-07T09:11:16;27.70;54.90
16402;DHT22;8310;44.626;11.176;2023-08-07T09:13:43;27.70;55.00
16402;DHT22;8310;44.626;11.176;2023-08-07T09:16:12;27.80;54.80
16402;DHT22;8310;44.626;11.176;2023-08-07T09:18:39;27.90;54.80
16402;DHT22;8310;44.626;11.176;2023-08-07T09:21:07;27.90;54.60
16402;DHT22;8310;44.626;11.176;2023-08-07T09:23:34;27.90;55.30
16402;DHT22;8310;44.626;11.176;2023-08-07T09:26:03;28.00;55.00
16402;DHT22;8310;44.626;11.176;2023-08-07T09:28:31;28.00;54.60
16402;DHT22;8310;44.626;11.176;2023-08-07T09:30:59;28.10;54.60
16402;DHT22;8310;44.626;11.176;2023-08-07T09:33:27;28.10;54.60
16402;DHT22;8310;44.626;11.176;2023-08-07T09:35:57;28.20;54.40
16402;DHT22;8310;44.626;11.176;2023-08-07T09:38:23;28.20;54.50
16402;DHT22;8310;44.626;11.176;2023-08-07T09:40:51;28.30;54.40
16402;DHT22;8310;44.626;11.176;2023-08-07T09:43:22;28.30;54.50
16402;DHT22;8310;44.626;11.176;2023-08-07T09:45:50;28.40;54.40
16402;DHT22;8310;44.626;11.176;2023-08-07T09:48:20;28.40;54.40
16402;DHT22;8310;44.626;11.176;2023-08-07T09:50:48;28.50;54.50
16402;DHT22;8310;44.626;11.176;2023-08-07T09:53:16;28.50;54.30
16402;DHT22;8310;44.626;11.176;2023-08-07T09:55:43;28.60;54.50
16402;DHT22;8310;44.626;11.176;2023-08-07T09:58:11;28.60;54.30
16402;DHT22;8310;44.626;11.176;2023-08-07T10:00:41;28.70;54.40
16402;DHT22;8310;44.626;11.176;2023-08-07T10:03:08;28.80;54.30
16402;DHT22;8310;44.626;11.176;2023-08-07T10:05:35;28.80;53.80
16402;DHT22;8310;44.626;11.176;2023-08-07T10:08:03;28.90;54.30
16402;DHT22;8310;44.626;11.176;2023-08-07T10:10:31;28.90;54.30
16402;DHT22;8310;44.626;11.176;2023-08-07T10:12:59;29.00;54.60
16402;DHT22;8310;44.626;11.176;2023-08-07T10:15:26;29.10;54.40
16402;DHT22;8310;44.626;11.176;2023-08-07T10:17:55;29.20;54.20
16402;DHT22;8310;44.626;11.176;2023-08-07T10:20:23;29.20;54.40
16402;DHT22;8310;44.626;11.176;2023-08-07T10:22:51;29.30;54.10
16402;DHT22;8310;44.626;11.176;2023-08-07T10:25:19;29.30;54.20
16402;DHT22;8310;44.626;11.176;2023-08-07T10:27:47;29.40;54.40
16402;DHT22;8310;44.626;11.176;2023-08-07T10:30:16;29.40;54.20
16402;DHT22;8310;44.626;11.176;2023-08-07T10:32:45;29.40;54.10
16402;DHT22;8310;44.626;11.176;2023-08-07T10:35:24;29.50;54.10
16402;DHT22;8310;44.626;11.176;2023-08-07T10:37:52;29.50;54.10
16402;DHT22;8310;44.626;11.176;2023-08-07T10:40:20;29.60;54.20
16402;DHT22;8310;44.626;11.176;2023-08-07T10:45:34;29.70;54.00
16402;DHT22;8310;44.626;11.176;2023-08-07T10:48:01;29.70;53.90
16402;DHT22;8310;44.626;11.176;2023-08-07T10:50:31;29.70;53.50
16402;DHT22;8310;44.626;11.176;2023-08-07T10:52:59;29.70;53.80
16402;DHT22;8310;44.626;11.176;2023-08-07T10:55:26;29.80;53.90
16402;DHT22;8310;44.626;11.176;2023-08-07T10:57:57;29.80;54.00
16402;DHT22;8310;44.626;11.176;2023-08-07T11:00:26;29.90;54.00
16402;DHT22;8310;44.626;11.176;2023-08-07T11:02:54;30.00;54.10
16402;DHT22;8310;44.626;11.176;2023-08-07T11:05:24;30.00;54.00
16402;DHT22;8310;44.626;11.176;2023-08-07T11:07:52;30.10;54.00
16402;DHT22;8310;44.626;11.176;2023-08-07T11:10:20;30.20;54.00
16402;DHT22;8310;44.626;11.176;2023-08-07T11:12:48;30.20;53.80
16402;DHT22;8310;44.626;11.176;2023-08-07T11:15:15;30.20;53.80
16402;DHT22;8310;44.626;11.176;2023-08-07T11:17:42;30.30;53.90
16402;DHT22;8310;44.626;11.176;2023-08-07T11:20:09;30.40;53.80
16402;DHT22;8310;44.626;11.176;2023-08-07T11:22:37;30.40;53.70
16402;DHT22;8310;44.626;11.176;2023-08-07T11:25:07;30.40;53.60
16402;DHT22;8310;44.626;11.176;2023-08-07T11:27:39;30.50;53.60
16402;DHT22;8310;44.626;11.176;2023-08-07T11:30:06;30.50;53.50
16402;DHT22;8310;44.626;11.176;2023-08-07T11:32:37;30.60;53.60
16402;DHT22;8310;44.626;11.176;2023-08-07T11:35:05;30.60;53.60
16402;DHT22;8310;44.626;11.176;2023-08-07T11:37:32;30.60;53.60
16402;DHT22;8310;44.626;11.176;2023-08-07T11:40:00;30.60;53.30
16402;DHT22;8310;44.626;11.176;2023-08-07T11:42:30;30.60;53.40
16402;DHT22;8310;44.626;11.176;2023-08-07T11:44:57;30.70;53.10
16402;DHT22;8310;44.626;11.176;2023-08-07T11:47:24;30.70;53.00
16402;DHT22;8310;44.626;11.176;2023-08-07T11:49:52;30.60;53.10
16402;DHT22;8310;44.626;11.176;2023-08-07T11:52:19;30.60;53.20
16402;DHT22;8310;44.626;11.176;2023-08-07T11:54:47;30.70;53.30
16402;DHT22;8310;44.626;11.176;2023-08-07T11:57:15;30.70;53.30
16402;DHT22;8310;44.626;11.176;2023-08-07T11:59:44;30.70;53.20
16402;DHT22;8310;44.626;11.176;2023-08-07T12:02:13;30.80;53.30
16402;DHT22;8310;44.626;11.176;2023-08-07T12:04:41;30.80;53.00
16402;DHT22;8310;44.626;11.176;2023-08-07T12:07:08;30.80;52.90
16402;DHT22;8310;44.626;11.176;2023-08-07T12:09:36;30.90;53.00
16402;DHT22;8310;44.626;11.176;2023-08-07T12:12:04;30.90;52.90
16402;DHT22;8310;44.626;11.176;2023-08-07T12:14:30;30.90;52.90
16402;DHT22;8310;44.626;11.176;2023-08-07T12:17:02;30.90;53.00
16402;DHT22;8310;44.626;11.176;2023-08-07T12:19:35;30.90;53.00
16402;DHT22;8310;44.626;11.176;2023-08-07T12:22:05;31.00;52.80
16402;DHT22;8310;44.626;11.176;2023-08-07T12:24:32;31.00;52.80
16402;DHT22;8310;44.626;11.176;2023-08-07T12:26:59;31.00;52.80
16402;DHT22;8310;44.626;11.176;2023-08-07T12:29:26;31.00;52.70
16402;DHT22;8310;44.626;11.176;2023-08-07T12:31:54;31.00;52.80
16402;DHT22;8310;44.626;11.176;2023-08-07T12:34:23;31.00;52.70
16402;DHT22;8310;44.626;11.176;2023-08-07T12:36:50;31.00;52.70
16402;DHT22;8310;44.626;11.176;2023-08-07T12:39:17;31.00;52.70
16402;DHT22;8310;44.626;11.176;2023-08-07T12:41:44;31.10;52.80
16402;DHT22;8310;44.626;11.176;2023-08-07T12:44:11;31.10;52.70
16402;DHT22;8310;44.626;11.176;2023-08-07T12:46:38;31.10;52.70
16402;DHT22;8310;44.626;11.176;2023-08-07T12:49:08;31.20;52.60
16402;DHT22;8310;44.626;11.176;2023-08-07T12:51:37;31.20;52.40
16402;DHT22;8310;44.626;11.176;2023-08-07T12:54:03;31.20;52.50
16402;DHT22;8310;44.626;11.176;2023-08-07T12:56:31;31.20;52.50
16402;DHT22;8310;44.626;11.176;2023-08-07T12:58:58;31.20;52.40
16402;DHT22;8310;44.626;11.176;2023-08-07T13:01:26;31.20;52.50
16402;DHT22;8310;44.626;11.176;2023-08-07T13:03:53;31.20;52.50
16402;DHT22;8310;44.626;11.176;2023-08-07T13:06:20;31.30;52.60
16402;DHT22;8310;44.626;11.176;2023-08-07T13:08:49;31.40;52.50
16402;DHT22;8310;44.626;11.176;2023-08-07T13:11:16;31.40;52.50
16402;DHT22;8310;44.626;11.176;2023-08-07T13:13:43;31.40;52.30
16402;DHT22;8310;44.626;11.176;2023-08-07T13:16:11;31.40;52.10
16402;DHT22;8310;44.626;11.176;2023-08-07T13:18:38;31.40;51.80
16402;DHT22;8310;44.626;11.176;2023-08-07T13:21:05;31.30;52.10
16402;DHT22;8310;44.626;11.176;2023-08-07T13:23:33;31.30;52.20
16402;DHT22;8310;44.626;11.176;2023-08-07T13:26:02;31.40;52.20
16402;DHT22;8310;44.626;11.176;2023-08-07T13:28:29;31.40;52.20
16402;DHT22;8310;44.626;11.176;2023-08-07T13:30:56;31.40;52.20
16402;DHT22;8310;44.626;11.176;2023-08-07T13:33:23;31.50;52.00
16402;DHT22;8310;44.626;11.176;2023-08-07T13:35:50;31.50;51.90
16402;DHT22;8310;44.626;11.176;2023-08-07T13:38:17;31.40;52.00
16402;DHT22;8310;44.626;11.176;2023-08-07T13:40:45;31.50;52.10
16402;DHT22;8310;44.626;11.176;2023-08-07T13:43:13;31.50;51.90
16402;DHT22;8310;44.626;11.176;2023-08-07T13:45:41;31.50;51.70
16402;DHT22;8310;44.626;11.176;2023-08-07T13:48:08;31.50;51.80
16402;DHT22;8310;44.626;11.176;2023-08-07T13:50:36;31.50;51.50
16402;DHT22;8310;44.626;11.176;2023-08-07T13:53:04;31.50;51.60
16402;DHT22;8310;44.626;11.176;2023-08-07T13:55:31;31.40;51.70
16402;DHT22;8310;44.626;11.176;2023-08-07T13:57:58;31.40;51.80
16402;DHT22;8310;44.626;11.176;2023-08-07T14:00:27;31.50;51.70
16402;DHT22;8310;44.626;11.176;2023-08-07T14:02:54;31.60;51.80
16402;DHT22;8310;44.626;11.176;2023-08-07T14:05:21;31.60;51.70
16402;DHT22;8310;44.626;11.176;2023-08-07T14:07:48;31.60;51.50
16402;DHT22;8310;44.626;11.176;2023-08-07T14:10:15;31.60;51.50
16402;DHT22;8310;44.626;11.176;2023-08-07T14:12:42;31.70;51.60
16402;DHT22;8310;44.626;11.176;2023-08-07T14:15:10;31.70;51.70
16402;DHT22;8310;44.626;11.176;2023-08-07T14:17:39;31.70;51.60
16402;DHT22;8310;44.626;11.176;2023-08-07T14:20:06;31.70;51.50
16402;DHT22;8310;44.626;11.176;2023-08-07T14:22:36;31.80;51.60
16402;DHT22;8310;44.626;11.176;2023-08-07T14:25:03;31.70;51.40
16402;DHT22;8310;44.626;11.176;2023-08-07T14:27:30;31.80;51.40
16402;DHT22;8310;44.626;11.176;2023-08-07T14:29:59;31.70;51.30
16402;DHT22;8310;44.626;11.176;2023-08-07T14:32:26;31.80;51.30
16402;DHT22;8310;44.626;11.176;2023-08-07T14:34:55;31.80;51.30
16402;DHT22;8310;44.626;11.176;2023-08-07T14:37:22;31.80;51.30
16402;DHT22;8310;44.626;11.176;2023-08-07T14:39:49;31.80;51.10
16402;DHT22;8310;44.626;11.176;2023-08-07T14:42:17;31.80;51.10
16402;DHT22;8310;44.626;11.176;2023-08-07T14:44:44;31.80;51.00
16402;DHT22;8310;44.626;11.176;2023-08-07T14:47:11;31.70;51.00
16402;DHT22;8310;44.626;11.176;2023-08-07T14:49:38;31.70;51.00
16402;DHT22;8310;44.626;11.176;2023-08-07T14:52:07;31.70;51.10
16402;DHT22;8310;44.626;11.176;2023-08-07T14:54:35;31.70;51.10
16402;DHT22;8310;44.626;11.176;2023-08-07T14:57:02;31.80;51.30
16402;DHT22;8310;44.626;11.176;2023-08-07T14:59:29;31.90;51.20
16402;DHT22;8310;44.626;11.176;2023-08-07T15:02:00;31.90;51.10
16402;DHT22;8310;44.626;11.176;2023-08-07T15:04:27;31.90;51.00
16402;DHT22;8310;44.626;11.176;2023-08-07T15:06:54;31.90;51.00
16402;DHT22;8310;44.626;11.176;2023-08-07T15:09:22;31.90;50.80
16402;DHT22;8310;44.626;11.176;2023-08-07T15:11:49;31.90;50.80
16402;DHT22;8310;44.626;11.176;2023-08-07T15:14:16;31.90;50.90
16402;DHT22;8310;44.626;11.176;2023-08-07T15:16:44;31.90;50.70
16402;DHT22;8310;44.626;11.176;2023-08-07T15:19:10;31.90;50.70
16402;DHT22;8310;44.626;11.176;2023-08-07T15:21:38;31.90;50.60
16402;DHT22;8310;44.626;11.176;2023-08-07T15:24:05;31.80;50.60
16402;DHT22;8310;44.626;11.176;2023-08-07T15:26:34;31.80;50.50
16402;DHT22;8310;44.626;11.176;2023-08-07T15:29:01;31.80;50.50
16402;DHT22;8310;44.626;11.176;2023-08-07T15:31:29;31.80;50.50
16402;DHT22;8310;44.626;11.176;2023-08-07T15:33:56;31.80;50.60
16402;DHT22;8310;44.626;11.176;2023-08-07T15:36:23;31.90;50.70